sensor_id;sensor_type;location;lat;lon;timestamp;P1;durP1;ratioP1;P2;durP2;ratioP2
8632;SDS011;4354;49.832;10.746;2023-04-03T00:00:44;4.73;;;1.90;;
8632;SDS011;4354;49.832;10.746;2023-04-03T00:03:11;3.30;;;1.73;;
8632;SDS011;4354;49.832;10.746;2023-04-03T00:05:38;3.67;;;2.00;;
8632;SDS011;4354;49.832;10.746;2023-04-03T00:08:04;3.37;;;1.90;;
8632;SDS011;4354;49.832;10.746;2023-04-03T00:10:34;2.47;;;1.60;;
8632;SDS011;4354;49.832;10.746;2023-04-03T00:13:02;2.77;;;1.70;;
8632;SDS011;4354;49.832;10.746;2023-04-03T00:15:29;2.47;;;1.73;;
8632;SDS011;4354;49.832;10.746;2023-04-03T00:17:56;2.97;;;2.00;;
8632;SDS011;4354;49.832;10.746;2023-04-03T00:20:23;3.03;;;2.20;;
8632;SDS011;4354;49.832;10.746;2023-04-03T00:22:50;2.13;;;1.90;;
8632;SDS011;4354;49.832;10.746;2023-04-03T00:25:17;5.47;;;2.10;;
8632;SDS011;4354;49.832;10.746;2023-04-03T00:27:44;3.47;;;2.27;;
8632;SDS011;4354;49.832;10.746;2023-04-03T00:30:13;2.27;;;2.03;;
8632;SDS011;4354;49.832;10.746;2023-04-03T00:32:41;2.57;;;2.23;;
8632;SDS011;4354;49.832;10.746;2023-04-03T00:35:08;5.83;;;2.20;;
8632;SDS011;4354;49.832;10.746;2023-04-03T00:37:35;3.17;;;2.20;;
8632;SDS011;4354;49.832;10.746;2023-04-03T00:40:03;2.53;;;2.13;;
8632;SDS011;4354;49.832;10.746;2023-04-03T00:42:30;4.13;;;2.30;;
8632;SDS011;4354;49.832;10.746;2023-04-03T00:47:24;3.53;;;2.47;;
8632;SDS011;4354;49.832;10.746;2023-04-03T00:49:51;3.73;;;2.20;;
8632;SDS011;4354;49.832;10.746;2023-04-03T00:52:21;3.93;;;2.33;;
8632;SDS011;4354;49.832;10.746;2023-04-03T00:54:52;3.43;;;2.17;;
8632;SDS011;4354;49.832;10.746;2023-04-03T00:57:22;2.13;;;1.93;;
8632;SDS011;4354;49.832;10.746;2023-04-03T00:59:50;3.40;;;1.97;;
8632;SDS011;4354;49.832;10.746;2023-04-03T01:02:21;2.40;;;2.17;;
8632;SDS011;4354;49.832;10.746;2023-04-03T01:04:48;2.97;;;2.50;;
8632;SDS011;4354;49.832;10.746;2023-04-03T01:09:42;2.83;;;1.90;;
8632;SDS011;4354;49.832;10.746;2023-04-03T01:14:49;3.13;;;2.30;;
8632;SDS011;4354;49.832;10.746;2023-04-03T01:17:28;2.20;;;1.90;;
8632;SDS011;4354;49.832;10.746;2023-04-03T01:25:56;3.43;;;2.20;;
8632;SDS011;4354;49.832;10.746;2023-04-03T01:33:28;4.27;;;2.13;;
8632;SDS011;4354;49.832;10.746;2023-04-03T01:35:56;2.90;;;2.03;;
8632;SDS011;4354;49.832;10.746;2023-04-03T01:38:23;3.27;;;2.13;;
8632;SDS011;4354;49.832;10.746;2023-04-03T01:40:49;2.77;;;2.20;;
8632;SDS011;4354;49.832;10.746;2023-04-03T01:43:16;3.67;;;2.40;;
8632;SDS011;4354;49.832;10.746;2023-04-03T01:45:43;2.50;;;2.10;;
8632;SDS011;4354;49.832;10.746;2023-04-03T01:48:10;4.50;;;2.37;;
8632;SDS011;4354;49.832;10.746;2023-04-03T01:50:37;3.30;;;2.07;;
8632;SDS011;4354;49.832;10.746;2023-04-03T01:53:04;4.17;;;2.60;;
8632;SDS011;4354;49.832;10.746;2023-04-03T01:55:31;3.83;;;2.30;;
8632;SDS011;4354;49.832;10.746;2023-04-03T01:57:57;2.90;;;2.03;;
8632;SDS011;4354;49.832;10.746;2023-04-03T02:00:24;3.20;;;2.50;;
8632;SDS011;4354;49.832;10.746;2023-04-03T02:02:52;3.20;;;2.40;;
8632;SDS011;4354;49.832;10.746;2023-04-03T02:05:19;2.80;;;2.43;;
8632;SDS011;4354;49.832;10.746;2023-04-03T02:07:46;3.20;;;2.60;;
8632;SDS011;4354;49.832;10.746;2023-04-03T02:10:13;6.73;;;3.73;;
8632;SDS011;4354;49.832;10.746;2023-04-03T02:12:40;7.33;;;3.50;;
8632;SDS011;4354;49.832;10.746;2023-04-03T02:15:07;4.90;;;3.43;;
8632;SDS011;4354;49.832;10.746;2023-04-03T02:17:34;5.20;;;3.10;;
8632;SDS011;4354;49.832;10.746;2023-04-03T02:20:01;4.80;;;3.40;;
8632;SDS011;4354;49.832;10.746;2023-04-03T02:22:29;5.23;;;3.50;;
8632;SDS011;4354;49.832;10.746;2023-04-03T02:24:56;5.60;;;3.10;;
8632;SDS011;4354;49.832;10.746;2023-04-03T02:27:23;5.03;;;2.63;;
8632;SDS011;4354;49.832;10.746;2023-04-03T02:29:49;6.50;;;2.93;;
8632;SDS011;4354;49.832;10.746;2023-04-03T02:32:16;3.57;;;2.60;;
8632;SDS011;4354;49.832;10.746;2023-04-03T02:34:43;4.07;;;2.90;;
8632;SDS011;4354;49.832;10.746;2023-04-03T02:37:09;6.23;;;3.10;;
8632;SDS011;4354;49.832;10.746;2023-04-03T02:39:36;4.00;;;2.93;;
8632;SDS011;4354;49.832;10.746;2023-04-03T02:42:03;5.83;;;3.00;;
8632;SDS011;4354;49.832;10.746;2023-04-03T02:44:30;5.63;;;2.93;;
8632;SDS011;4354;49.832;10.746;2023-04-03T02:46:57;3.30;;;2.90;;
8632;SDS011;4354;49.832;10.746;2023-04-03T02:49:24;4.07;;;2.70;;
8632;SDS011;4354;49.832;10.746;2023-04-03T02:51:51;3.90;;;2.90;;
8632;SDS011;4354;49.832;10.746;2023-04-03T02:54:17;5.60;;;2.80;;
8632;SDS011;4354;49.832;10.746;2023-04-03T02:56:44;4.57;;;3.20;;
8632;SDS011;4354;49.832;10.746;2023-04-03T02:59:11;5.03;;;3.47;;
8632;SDS011;4354;49.832;10.746;2023-04-03T03:01:37;7.37;;;3.40;;
8632;SDS011;4354;49.832;10.746;2023-04-03T03:04:04;4.70;;;3.70;;
8632;SDS011;4354;49.832;10.746;2023-04-03T03:06:31;7.10;;;3.53;;
8632;SDS011;4354;49.832;10.746;2023-04-03T03:08:58;5.67;;;3.20;;
8632;SDS011;4354;49.832;10.746;2023-04-03T03:11:25;5.27;;;3.30;;
8632;SDS011;4354;49.832;10.746;2023-04-03T03:13:52;5.70;;;3.80;;
8632;SDS011;4354;49.832;10.746;2023-04-03T03:16:18;5.20;;;3.63;;
8632;SDS011;4354;49.832;10.746;2023-04-03T03:18:45;8.00;;;4.00;;
8632;SDS011;4354;49.832;10.746;2023-04-03T03:21:12;8.47;;;3.70;;
8632;SDS011;4354;49.832;10.746;2023-04-03T03:23:39;5.33;;;3.80;;
8632;SDS011;4354;49.832;10.746;2023-04-03T03:26:07;5.37;;;3.33;;
8632;SDS011;4354;49.832;10.746;2023-04-03T03:28:36;3.60;;;3.30;;
8632;SDS011;4354;49.832;10.746;2023-04-03T03:31:04;7.27;;;3.80;;
8632;SDS011;4354;49.832;10.746;2023-04-03T03:33:31;5.67;;;3.77;;
8632;SDS011;4354;49.832;10.746;2023-04-03T03:35:59;6.80;;;3.50;;
8632;SDS011;4354;49.832;10.746;2023-04-03T03:38:26;6.33;;;3.87;;
8632;SDS011;4354;49.832;10.746;2023-04-03T03:40:53;7.17;;;3.70;;
8632;SDS011;4354;49.832;10.746;2023-04-03T03:43:20;4.30;;;3.53;;
8632;SDS011;4354;49.832;10.746;2023-04-03T03:45:50;5.80;;;3.27;;
8632;SDS011;4354;49.832;10.746;2023-04-03T03:48:18;6.27;;;3.33;;
8632;SDS011;4354;49.832;10.746;2023-04-03T03:50:46;5.53;;;3.47;;
8632;SDS011;4354;49.832;10.746;2023-04-03T03:53:14;8.23;;;3.33;;
8632;SDS011;4354;49.832;10.746;2023-04-03T03:55:41;5.50;;;3.27;;
8632;SDS011;4354;49.832;10.746;2023-04-03T03:58:08;5.17;;;3.10;;
8632;SDS011;4354;49.832;10.746;2023-04-03T04:00:34;6.30;;;3.20;;
8632;SDS011;4354;49.832;10.746;2023-04-03T04:03:01;5.77;;;3.40;;
8632;SDS011;4354;49.832;10.746;2023-04-03T04:05:28;4.57;;;2.80;;
8632;SDS011;4354;49.832;10.746;2023-04-03T04:07:55;5.57;;;3.20;;
8632;SDS011;4354;49.832;10.746;2023-04-03T04:10:22;5.10;;;3.77;;
8632;SDS011;4354;49.832;10.746;2023-04-03T04:12:49;6.03;;;3.30;;
8632;SDS011;4354;49.832;10.746;2023-04-03T04:15:17;6.57;;;3.13;;
8632;SDS011;4354;49.832;10.746;2023-04-03T04:17:44;5.47;;;3.40;;
8632;SDS011;4354;49.832;10.746;2023-04-03T04:20:11;6.03;;;3.97;;
8632;SDS011;4354;49.832;10.746;2023-04-03T04:22:38;3.17;;;2.87;;
8632;SDS011;4354;49.832;10.746;2023-04-03T04:25:05;5.77;;;3.17;;
8632;SDS011;4354;49.832;10.746;2023-04-03T04:27:32;8.47;;;3.37;;
8632;SDS011;4354;49.832;10.746;2023-04-03T04:29:59;7.07;;;3.50;;
8632;SDS011;4354;49.832;10.746;2023-04-03T04:32:26;4.10;;;3.27;;
8632;SDS011;4354;49.832;10.746;2023-04-03T04:34:53;6.50;;;3.67;;
8632;SDS011;4354;49.832;10.746;2023-04-03T04:37:20;3.90;;;2.47;;
8632;SDS011;4354;49.832;10.746;2023-04-03T04:39:47;5.37;;;3.20;;
8632;SDS011;4354;49.832;10.746;2023-04-03T04:42:13;6.63;;;3.57;;
8632;SDS011;4354;49.832;10.746;2023-04-03T04:44:43;6.23;;;3.37;;
8632;SDS011;4354;49.832;10.746;2023-04-03T04:47:10;5.03;;;3.00;;
8632;SDS011;4354;49.832;10.746;2023-04-03T04:52:08;3.63;;;2.73;;
8632;SDS011;4354;49.832;10.746;2023-04-03T04:54:35;6.73;;;3.37;;
8632;SDS011;4354;49.832;10.746;2023-04-03T04:57:02;5.73;;;3.40;;
8632;SDS011;4354;49.832;10.746;2023-04-03T04:59:29;5.77;;;3.40;;
8632;SDS011;4354;49.832;10.746;2023-04-03T05:01:56;5.43;;;3.50;;
8632;SDS011;4354;49.832;10.746;2023-04-03T05:04:23;8.47;;;3.70;;
8632;SDS011;4354;49.832;10.746;2023-04-03T05:06:50;3.47;;;2.90;;
8632;SDS011;4354;49.832;10.746;2023-04-03T05:09:16;4.80;;;3.43;;
8632;SDS011;4354;49.832;10.746;2023-04-03T05:11:44;7.63;;;3.27;;
8632;SDS011;4354;49.832;10.746;2023-04-03T05:14:11;5.37;;;3.17;;
8632;SDS011;4354;49.832;10.746;2023-04-03T05:16:38;4.83;;;3.33;;
8632;SDS011;4354;49.832;10.746;2023-04-03T05:19:04;6.90;;;3.50;;
8632;SDS011;4354;49.832;10.746;2023-04-03T05:21:31;7.07;;;3.50;;
8632;SDS011;4354;49.832;10.746;2023-04-03T05:23:59;6.57;;;3.57;;
8632;SDS011;4354;49.832;10.746;2023-04-03T05:26:29;4.50;;;3.30;;
8632;SDS011;4354;49.832;10.746;2023-04-03T05:28:56;7.43;;;3.53;;
8632;SDS011;4354;49.832;10.746;2023-04-03T05:31:23;5.57;;;3.60;;
8632;SDS011;4354;49.832;10.746;2023-04-03T05:33:50;6.77;;;3.70;;
8632;SDS011;4354;49.832;10.746;2023-04-03T05:36:17;4.80;;;3.60;;
8632;SDS011;4354;49.832;10.746;2023-04-03T05:38:44;6.77;;;3.33;;
8632;SDS011;4354;49.832;10.746;2023-04-03T05:41:12;6.97;;;3.17;;
8632;SDS011;4354;49.832;10.746;2023-04-03T05:43:39;7.97;;;3.80;;
8632;SDS011;4354;49.832;10.746;2023-04-03T05:46:10;6.07;;;3.30;;
8632;SDS011;4354;49.832;10.746;2023-04-03T05:48:41;8.37;;;3.83;;
8632;SDS011;4354;49.832;10.746;2023-04-03T05:51:19;8.43;;;3.30;;
8632;SDS011;4354;49.832;10.746;2023-04-03T05:53:52;6.50;;;3.00;;
8632;SDS011;4354;49.832;10.746;2023-04-03T05:56:25;7.70;;;3.53;;
8632;SDS011;4354;49.832;10.746;2023-04-03T05:58:52;6.13;;;3.53;;
8632;SDS011;4354;49.832;10.746;2023-04-03T06:01:19;6.87;;;3.33;;
8632;SDS011;4354;49.832;10.746;2023-04-03T06:03:46;8.10;;;3.20;;
8632;SDS011;4354;49.832;10.746;2023-04-03T06:06:13;6.50;;;2.60;;
8632;SDS011;4354;49.832;10.746;2023-04-03T06:08:40;5.47;;;3.07;;
8632;SDS011;4354;49.832;10.746;2023-04-03T06:11:07;3.70;;;2.87;;
8632;SDS011;4354;49.832;10.746;2023-04-03T06:13:34;6.47;;;3.43;;
8632;SDS011;4354;49.832;10.746;2023-04-03T06:16:01;7.93;;;3.13;;
8632;SDS011;4354;49.832;10.746;2023-04-03T06:18:28;6.63;;;3.13;;
8632;SDS011;4354;49.832;10.746;2023-04-03T06:20:56;4.83;;;3.17;;
8632;SDS011;4354;49.832;10.746;2023-04-03T06:23:24;6.03;;;3.17;;
8632;SDS011;4354;49.832;10.746;2023-04-03T06:25:50;9.60;;;3.57;;
8632;SDS011;4354;49.832;10.746;2023-04-03T06:28:17;3.83;;;2.70;;
8632;SDS011;4354;49.832;10.746;2023-04-03T06:30:45;5.23;;;3.07;;
8632;SDS011;4354;49.832;10.746;2023-04-03T06:33:12;6.13;;;3.23;;
8632;SDS011;4354;49.832;10.746;2023-04-03T06:35:38;10.90;;;3.43;;
8632;SDS011;4354;49.832;10.746;2023-04-03T06:38:05;5.80;;;2.83;;
8632;SDS011;4354;49.832;10.746;2023-04-03T06:40:35;4.13;;;2.67;;
8632;SDS011;4354;49.832;10.746;2023-04-03T06:43:03;6.40;;;3.00;;
8632;SDS011;4354;49.832;10.746;2023-04-03T06:45:29;8.23;;;2.80;;
8632;SDS011;4354;49.832;10.746;2023-04-03T06:47:56;5.37;;;2.97;;
8632;SDS011;4354;49.832;10.746;2023-04-03T06:50:23;7.13;;;3.03;;
8632;SDS011;4354;49.832;10.746;2023-04-03T06:52:50;5.00;;;3.20;;
8632;SDS011;4354;49.832;10.746;2023-04-03T06:55:17;9.27;;;3.17;;
8632;SDS011;4354;49.832;10.746;2023-04-03T06:57:44;4.93;;;2.97;;
8632;SDS011;4354;49.832;10.746;2023-04-03T07:00:11;3.73;;;2.93;;
8632;SDS011;4354;49.832;10.746;2023-04-03T07:02:39;6.63;;;3.50;;
8632;SDS011;4354;49.832;10.746;2023-04-03T07:05:06;5.40;;;3.03;;
8632;SDS011;4354;49.832;10.746;2023-04-03T07:07:33;8.10;;;3.53;;
8632;SDS011;4354;49.832;10.746;2023-04-03T07:10:00;4.47;;;3.07;;
8632;SDS011;4354;49.832;10.746;2023-04-03T07:12:27;4.63;;;2.67;;
8632;SDS011;4354;49.832;10.746;2023-04-03T07:14:54;4.67;;;2.47;;
8632;SDS011;4354;49.832;10.746;2023-04-03T07:17:20;4.33;;;2.40;;
8632;SDS011;4354;49.832;10.746;2023-04-03T07:19:47;3.37;;;2.50;;
8632;SDS011;4354;49.832;10.746;2023-04-03T07:22:14;5.43;;;2.70;;
8632;SDS011;4354;49.832;10.746;2023-04-03T07:24:42;4.33;;;3.03;;
8632;SDS011;4354;49.832;10.746;2023-04-03T07:27:09;5.63;;;2.87;;
8632;SDS011;4354;49.832;10.746;2023-04-03T07:29:38;5.60;;;2.97;;
8632;SDS011;4354;49.832;10.746;2023-04-03T07:32:06;5.33;;;3.07;;
8632;SDS011;4354;49.832;10.746;2023-04-03T07:34:33;5.37;;;2.67;;
8632;SDS011;4354;49.832;10.746;2023-04-03T07:37:00;4.03;;;2.90;;
8632;SDS011;4354;49.832;10.746;2023-04-03T07:39:27;4.83;;;2.50;;
8632;SDS011;4354;49.832;10.746;2023-04-03T07:41:54;6.40;;;2.83;;
8632;SDS011;4354;49.832;10.746;2023-04-03T07:44:24;4.40;;;2.60;;
8632;SDS011;4354;49.832;10.746;2023-04-03T07:46:51;5.33;;;2.43;;
8632;SDS011;4354;49.832;10.746;2023-04-03T07:49:18;5.47;;;2.80;;
8632;SDS011;4354;49.832;10.746;2023-04-03T07:51:45;4.97;;;2.20;;
8632;SDS011;4354;49.832;10.746;2023-04-03T07:54:12;3.13;;;2.03;;
8632;SDS011;4354;49.832;10.746;2023-04-03T07:56:39;2.85;;;2.15;;
8632;SDS011;4354;49.832;10.746;2023-04-03T07:59:06;3.92;;;2.45;;
8632;SDS011;4354;49.832;10.746;2023-04-03T08:01:33;3.53;;;2.10;;
8632;SDS011;4354;49.832;10.746;2023-04-03T08:04:00;3.85;;;2.15;;
8632;SDS011;4354;49.832;10.746;2023-04-03T08:06:27;4.97;;;2.20;;
8632;SDS011;4354;49.832;10.746;2023-04-03T08:09:11;3.85;;;2.40;;
8632;SDS011;4354;49.832;10.746;2023-04-03T08:11:39;3.50;;;2.08;;
8632;SDS011;4354;49.832;10.746;2023-04-03T08:14:06;3.45;;;2.25;;
8632;SDS011;4354;49.832;10.746;2023-04-03T08:16:33;2.67;;;2.08;;
8632;SDS011;4354;49.832;10.746;2023-04-03T08:19:00;5.47;;;2.70;;
8632;SDS011;4354;49.832;10.746;2023-04-03T08:21:27;2.67;;;2.00;;
8632;SDS011;4354;49.832;10.746;2023-04-03T08:23:54;4.70;;;1.80;;
8632;SDS011;4354;49.832;10.746;2023-04-03T08:26:21;3.40;;;2.22;;
8632;SDS011;4354;49.832;10.746;2023-04-03T08:28:48;3.55;;;2.10;;
8632;SDS011;4354;49.832;10.746;2023-04-03T08:31:16;4.25;;;2.40;;
8632;SDS011;4354;49.832;10.746;2023-04-03T08:33:45;3.80;;;2.38;;
8632;SDS011;4354;49.832;10.746;2023-04-03T08:36:20;2.92;;;2.28;;
8632;SDS011;4354;49.832;10.746;2023-04-03T08:38:55;3.85;;;2.55;;
8632;SDS011;4354;49.832;10.746;2023-04-03T08:41:29;2.55;;;2.00;;
8632;SDS011;4354;49.832;10.746;2023-04-03T08:44:04;2.70;;;2.05;;
8632;SDS011;4354;49.832;10.746;2023-04-03T08:49:42;3.95;;;1.95;;
8632;SDS011;4354;49.832;10.746;2023-04-03T08:52:15;3.38;;;2.17;;
8632;SDS011;4354;49.832;10.746;2023-04-03T08:54:49;3.70;;;2.50;;
8632;SDS011;4354;49.832;10.746;2023-04-03T08:57:39;2.92;;;2.25;;
8632;SDS011;4354;49.832;10.746;2023-04-03T09:00:18;2.90;;;2.10;;
8632;SDS011;4354;49.832;10.746;2023-04-03T09:08:09;3.90;;;1.80;;
8632;SDS011;4354;49.832;10.746;2023-04-03T09:10:44;2.53;;;1.85;;
8632;SDS011;4354;49.832;10.746;2023-04-03T09:15:59;3.03;;;1.90;;
8632;SDS011;4354;49.832;10.746;2023-04-03T09:18:30;2.25;;;1.65;;
8632;SDS011;4354;49.832;10.746;2023-04-03T09:21:12;4.07;;;1.90;;
8632;SDS011;4354;49.832;10.746;2023-04-03T09:23:43;2.95;;;2.20;;
8632;SDS011;4354;49.832;10.746;2023-04-03T09:26:25;3.33;;;1.65;;
8632;SDS011;4354;49.832;10.746;2023-04-03T09:29:17;2.58;;;2.00;;
8632;SDS011;4354;49.832;10.746;2023-04-03T09:31:47;4.97;;;2.25;;
8632;SDS011;4354;49.832;10.746;2023-04-03T09:34:22;2.70;;;1.67;;
8632;SDS011;4354;49.832;10.746;2023-04-03T09:36:53;2.33;;;1.60;;
8632;SDS011;4354;49.832;10.746;2023-04-03T09:39:23;2.65;;;1.70;;
8632;SDS011;4354;49.832;10.746;2023-04-03T09:44:29;2.30;;;1.60;;
8632;SDS011;4354;49.832;10.746;2023-04-03T09:47:16;1.95;;;1.75;;
8632;SDS011;4354;49.832;10.746;2023-04-03T09:49:43;3.85;;;1.92;;
8632;SDS011;4354;49.832;10.746;2023-04-03T09:52:20;2.75;;;2.05;;
8632;SDS011;4354;49.832;10.746;2023-04-03T09:54:50;3.60;;;2.30;;
8632;SDS011;4354;49.832;10.746;2023-04-03T09:57:17;3.10;;;2.15;;
8632;SDS011;4354;49.832;10.746;2023-04-03T09:59:46;3.78;;;1.73;;
8632;SDS011;4354;49.832;10.746;2023-04-03T10:05:00;3.67;;;2.10;;
8632;SDS011;4354;49.832;10.746;2023-04-03T10:10:21;2.55;;;2.10;;
8632;SDS011;4354;49.832;10.746;2023-04-03T10:13:09;2.92;;;1.88;;
8632;SDS011;4354;49.832;10.746;2023-04-03T10:15:56;2.85;;;2.10;;
8632;SDS011;4354;49.832;10.746;2023-04-03T10:18:30;4.38;;;2.10;;
8632;SDS011;4354;49.832;10.746;2023-04-03T10:26:52;2.53;;;1.65;;
8632;SDS011;4354;49.832;10.746;2023-04-03T10:34:40;3.63;;;2.03;;
8632;SDS011;4354;49.832;10.746;2023-04-03T10:51:41;2.80;;;1.50;;
8632;SDS011;4354;49.832;10.746;2023-04-03T10:54:23;2.75;;;1.63;;
8632;SDS011;4354;49.832;10.746;2023-04-03T10:57:03;1.70;;;1.15;;
8632;SDS011;4354;49.832;10.746;2023-04-03T10:59:40;2.55;;;1.48;;
8632;SDS011;4354;49.832;10.746;2023-04-03T11:05:04;2.70;;;1.38;;
8632;SDS011;4354;49.832;10.746;2023-04-03T11:07:40;2.20;;;1.25;;
8632;SDS011;4354;49.832;10.746;2023-04-03T11:10:13;1.90;;;1.13;;
8632;SDS011;4354;49.832;10.746;2023-04-03T11:12:57;1.65;;;1.20;;
8632;SDS011;4354;49.832;10.746;2023-04-03T11:15:32;2.45;;;1.27;;
8632;SDS011;4354;49.832;10.746;2023-04-03T11:23:56;2.75;;;1.85;;
8632;SDS011;4354;49.832;10.746;2023-04-03T11:26:26;3.13;;;2.30;;
8632;SDS011;4354;49.832;10.746;2023-04-03T11:29:02;3.25;;;1.30;;
8632;SDS011;4354;49.832;10.746;2023-04-03T11:34:36;3.15;;;2.00;;
8632;SDS011;4354;49.832;10.746;2023-04-03T11:37:25;2.58;;;1.88;;
8632;SDS011;4354;49.832;10.746;2023-04-03T11:40:03;4.32;;;1.80;;
8632;SDS011;4354;49.832;10.746;2023-04-03T11:42:36;4.20;;;1.77;;
8632;SDS011;4354;49.832;10.746;2023-04-03T11:45:15;3.15;;;1.70;;
8632;SDS011;4354;49.832;10.746;2023-04-03T11:47:56;3.70;;;1.48;;
8632;SDS011;4354;49.832;10.746;2023-04-03T11:58:03;2.03;;;1.30;;
8632;SDS011;4354;49.832;10.746;2023-04-03T12:16:25;2.45;;;1.60;;
8632;SDS011;4354;49.832;10.746;2023-04-03T12:19:01;4.32;;;2.13;;
8632;SDS011;4354;49.832;10.746;2023-04-03T12:26:47;2.42;;;1.50;;
8632;SDS011;4354;49.832;10.746;2023-04-03T12:46:10;2.72;;;1.30;;
8632;SDS011;4354;49.832;10.746;2023-04-03T12:48:49;2.25;;;1.70;;
8632;SDS011;4354;49.832;10.746;2023-04-03T12:51:22;2.30;;;1.33;;
8632;SDS011;4354;49.832;10.746;2023-04-03T12:54:16;2.75;;;1.60;;
8632;SDS011;4354;49.832;10.746;2023-04-03T12:56:49;2.20;;;1.35;;
8632;SDS011;4354;49.832;10.746;2023-04-03T12:59:18;5.43;;;1.55;;
8632;SDS011;4354;49.832;10.746;2023-04-03T13:01:54;3.95;;;1.30;;
8632;SDS011;4354;49.832;10.746;2023-04-03T13:04:28;2.53;;;1.38;;
8632;SDS011;4354;49.832;10.746;2023-04-03T13:06:58;1.73;;;1.20;;
8632;SDS011;4354;49.832;10.746;2023-04-03T13:09:26;1.60;;;1.33;;
8632;SDS011;4354;49.832;10.746;2023-04-03T13:12:08;1.60;;;1.40;;
8632;SDS011;4354;49.832;10.746;2023-04-03T13:14:38;3.08;;;1.42;;
8632;SDS011;4354;49.832;10.746;2023-04-03T13:17:14;1.60;;;1.13;;
8632;SDS011;4354;49.832;10.746;2023-04-03T13:19:43;2.15;;;1.38;;
8632;SDS011;4354;49.832;10.746;2023-04-03T13:24:55;2.90;;;1.85;;
8632;SDS011;4354;49.832;10.746;2023-04-03T13:27:26;3.83;;;2.28;;
8632;SDS011;4354;49.832;10.746;2023-04-03T13:29:57;1.80;;;1.40;;
8632;SDS011;4354;49.832;10.746;2023-04-03T13:32:26;1.85;;;1.08;;
8632;SDS011;4354;49.832;10.746;2023-04-03T13:34:56;3.38;;;1.45;;
8632;SDS011;4354;49.832;10.746;2023-04-03T13:37:31;2.38;;;1.42;;
8632;SDS011;4354;49.832;10.746;2023-04-03T13:42:33;3.38;;;1.63;;
8632;SDS011;4354;49.832;10.746;2023-04-03T13:51:00;2.75;;;1.20;;
8632;SDS011;4354;49.832;10.746;2023-04-03T13:53:30;3.33;;;1.70;;
8632;SDS011;4354;49.832;10.746;2023-04-03T13:56:00;3.65;;;1.40;;
8632;SDS011;4354;49.832;10.746;2023-04-03T13:58:31;3.22;;;1.85;;
8632;SDS011;4354;49.832;10.746;2023-04-03T14:01:00;4.25;;;1.85;;
8632;SDS011;4354;49.832;10.746;2023-04-03T14:03:47;2.75;;;1.45;;
8632;SDS011;4354;49.832;10.746;2023-04-03T14:06:25;2.35;;;1.80;;
8632;SDS011;4354;49.832;10.746;2023-04-03T14:08:53;3.13;;;1.73;;
8632;SDS011;4354;49.832;10.746;2023-04-03T14:11:24;4.28;;;1.92;;
8632;SDS011;4354;49.832;10.746;2023-04-03T14:13:55;4.10;;;1.73;;
8632;SDS011;4354;49.832;10.746;2023-04-03T14:16:29;2.80;;;2.08;;
8632;SDS011;4354;49.832;10.746;2023-04-03T14:18:59;5.13;;;2.13;;
8632;SDS011;4354;49.832;10.746;2023-04-03T14:21:25;3.53;;;1.77;;
8632;SDS011;4354;49.832;10.746;2023-04-03T14:23:52;2.30;;;1.40;;
8632;SDS011;4354;49.832;10.746;2023-04-03T14:26:20;4.63;;;1.90;;
8632;SDS011;4354;49.832;10.746;2023-04-03T14:28:49;3.27;;;1.80;;
8632;SDS011;4354;49.832;10.746;2023-04-03T14:31:18;3.15;;;1.55;;
8632;SDS011;4354;49.832;10.746;2023-04-03T14:33:46;3.20;;;1.60;;
8632;SDS011;4354;49.832;10.746;2023-04-03T14:36:21;3.57;;;1.30;;
8632;SDS011;4354;49.832;10.746;2023-04-03T14:38:53;4.83;;;2.50;;
8632;SDS011;4354;49.832;10.746;2023-04-03T14:41:20;6.13;;;1.93;;
8632;SDS011;4354;49.832;10.746;2023-04-03T14:43:50;4.40;;;1.83;;
8632;SDS011;4354;49.832;10.746;2023-04-03T14:46:25;5.00;;;2.60;;
8632;SDS011;4354;49.832;10.746;2023-04-03T14:49:18;4.03;;;1.93;;
8632;SDS011;4354;49.832;10.746;2023-04-03T14:51:47;3.67;;;2.00;;
8632;SDS011;4354;49.832;10.746;2023-04-03T14:54:15;3.27;;;1.57;;
8632;SDS011;4354;49.832;10.746;2023-04-03T14:56:45;3.27;;;1.93;;
8632;SDS011;4354;49.832;10.746;2023-04-03T14:59:12;2.43;;;1.43;;
8632;SDS011;4354;49.832;10.746;2023-04-03T15:01:40;4.50;;;2.50;;
8632;SDS011;4354;49.832;10.746;2023-04-03T15:04:11;7.47;;;4.17;;
8632;SDS011;4354;49.832;10.746;2023-04-03T15:06:43;5.53;;;2.83;;
8632;SDS011;4354;49.832;10.746;2023-04-03T15:09:44;3.20;;;1.60;;
8632;SDS011;4354;49.832;10.746;2023-04-03T15:12:03;5.03;;;1.90;;
8632;SDS011;4354;49.832;10.746;2023-04-03T15:14:32;2.20;;;1.23;;
8632;SDS011;4354;49.832;10.746;2023-04-03T15:17:13;6.57;;;3.30;;
8632;SDS011;4354;49.832;10.746;2023-04-03T15:19:43;6.30;;;2.80;;
8632;SDS011;4354;49.832;10.746;2023-04-03T15:22:12;2.93;;;1.80;;
8632;SDS011;4354;49.832;10.746;2023-04-03T15:24:41;3.40;;;2.30;;
8632;SDS011;4354;49.832;10.746;2023-04-03T15:27:08;4.07;;;2.43;;
8632;SDS011;4354;49.832;10.746;2023-04-03T15:29:36;4.37;;;1.90;;
8632;SDS011;4354;49.832;10.746;2023-04-03T15:32:03;4.50;;;2.40;;
8632;SDS011;4354;49.832;10.746;2023-04-03T15:34:31;2.47;;;1.60;;
8632;SDS011;4354;49.832;10.746;2023-04-03T15:36:58;2.33;;;1.40;;
8632;SDS011;4354;49.832;10.746;2023-04-03T15:39:25;4.73;;;1.20;;
8632;SDS011;4354;49.832;10.746;2023-04-03T15:41:53;6.50;;;2.33;;
8632;SDS011;4354;49.832;10.746;2023-04-03T15:44:21;2.60;;;1.13;;
8632;SDS011;4354;49.832;10.746;2023-04-03T15:46:48;3.40;;;1.20;;
8632;SDS011;4354;49.832;10.746;2023-04-03T15:49:18;2.20;;;1.20;;
8632;SDS011;4354;49.832;10.746;2023-04-03T15:51:47;3.37;;;1.93;;
8632;SDS011;4354;49.832;10.746;2023-04-03T15:54:13;4.67;;;2.10;;
8632;SDS011;4354;49.832;10.746;2023-04-03T15:56:41;2.43;;;1.77;;
8632;SDS011;4354;49.832;10.746;2023-04-03T15:59:08;4.10;;;1.70;;
8632;SDS011;4354;49.832;10.746;2023-04-03T16:01:35;3.40;;;1.57;;
8632;SDS011;4354;49.832;10.746;2023-04-03T16:04:04;4.23;;;1.87;;
8632;SDS011;4354;49.832;10.746;2023-04-03T16:06:31;4.23;;;1.70;;
8632;SDS011;4354;49.832;10.746;2023-04-03T16:08:59;4.13;;;1.47;;
8632;SDS011;4354;49.832;10.746;2023-04-03T16:11:26;6.43;;;2.37;;
8632;SDS011;4354;49.832;10.746;2023-04-03T16:13:54;4.40;;;1.90;;
8632;SDS011;4354;49.832;10.746;2023-04-03T16:16:23;3.43;;;2.00;;
8632;SDS011;4354;49.832;10.746;2023-04-03T16:18:53;2.40;;;1.30;;
8632;SDS011;4354;49.832;10.746;2023-04-03T16:21:21;1.77;;;1.10;;
8632;SDS011;4354;49.832;10.746;2023-04-03T16:23:49;1.50;;;0.90;;
8632;SDS011;4354;49.832;10.746;2023-04-03T16:26:16;6.33;;;1.70;;
8632;SDS011;4354;49.832;10.746;2023-04-03T16:28:43;2.47;;;1.53;;
8632;SDS011;4354;49.832;10.746;2023-04-03T16:31:10;1.83;;;1.10;;
8632;SDS011;4354;49.832;10.746;2023-04-03T16:33:37;4.10;;;1.40;;
8632;SDS011;4354;49.832;10.746;2023-04-03T16:36:04;2.97;;;1.60;;
8632;SDS011;4354;49.832;10.746;2023-04-03T16:38:31;2.60;;;1.50;;
8632;SDS011;4354;49.832;10.746;2023-04-03T16:40:59;3.00;;;1.43;;
8632;SDS011;4354;49.832;10.746;2023-04-03T16:43:31;2.80;;;1.70;;
8632;SDS011;4354;49.832;10.746;2023-04-03T16:45:58;2.47;;;1.30;;
8632;SDS011;4354;49.832;10.746;2023-04-03T16:48:25;3.97;;;1.53;;
8632;SDS011;4354;49.832;10.746;2023-04-03T16:50:51;4.27;;;1.63;;
8632;SDS011;4354;49.832;10.746;2023-04-03T16:53:22;3.20;;;1.40;;
8632;SDS011;4354;49.832;10.746;2023-04-03T16:55:50;3.87;;;2.23;;
8632;SDS011;4354;49.832;10.746;2023-04-03T16:58:18;2.23;;;1.50;;
8632;SDS011;4354;49.832;10.746;2023-04-03T17:00:47;2.10;;;0.90;;
8632;SDS011;4354;49.832;10.746;2023-04-03T17:03:14;3.90;;;1.60;;
8632;SDS011;4354;49.832;10.746;2023-04-03T17:05:41;2.93;;;1.23;;
8632;SDS011;4354;49.832;10.746;2023-04-03T17:08:09;3.80;;;2.23;;
8632;SDS011;4354;49.832;10.746;2023-04-03T17:10:36;4.17;;;1.50;;
8632;SDS011;4354;49.832;10.746;2023-04-03T17:13:03;3.00;;;1.63;;
8632;SDS011;4354;49.832;10.746;2023-04-03T17:15:30;3.20;;;1.90;;
8632;SDS011;4354;49.832;10.746;2023-04-03T17:17:57;2.77;;;1.67;;
8632;SDS011;4354;49.832;10.746;2023-04-03T17:20:24;2.90;;;1.93;;
8632;SDS011;4354;49.832;10.746;2023-04-03T17:22:50;2.07;;;1.23;;
8632;SDS011;4354;49.832;10.746;2023-04-03T17:25:17;2.67;;;1.40;;
8632;SDS011;4354;49.832;10.746;2023-04-03T17:27:44;2.77;;;1.43;;